Time;durP1;ratioP1;P1;durP2;ratioP2;P2;SDS_P1;SDS_P2;PMS_P1;PMS_P2;Temp;Humidity;BMP_temperature;BMP_pressure;BME280_temperature;BME280_humidity;BME280_pressure;Samples;Min_cycle;Max_cycle;Signal;HPM_P1;HPM_P2
2022/04/13 00:00:08;;;;;;;8.80;3.72;;;12.80;99.90;;;;;;4950761;28;20066;-68
2022/04/13 00:02:33;;;;;;;6.25;3.75;;;12.70;99.90;;;;;;4953638;28;20035;-68
2022/04/13 00:04:59;;;;;;;7.53;4.93;;;12.70;99.90;;;;;;4956158;28;20031;-68
2022/04/13 00:07:25;;;;;;;7.20;5.18;;;12.70;99.90;;;;;;4959105;28;20053;-68
2022/04/13 00:09:50;;;;;;;9.27;4.68;;;12.60;99.90;;;;;;4972084;28;20050;-68
2022/04/13 00:12:16;;;;;;;6.28;4.90;;;12.60;99.90;;;;;;4956037;28;20054;-68
2022/04/13 00:14:41;;;;;;;8.45;6.60;;;12.60;99.90;;;;;;4972679;28;20051;-68
2022/04/13 00:17:07;;;;;;;7.50;5.25;;;12.60;99.90;;;;;;4958157;28;20051;-68
2022/04/13 00:19:33;;;;;;;7.72;5.22;;;12.60;99.90;;;;;;4967922;28;20043;-68
2022/04/13 00:21:59;;;;;;;10.95;7.18;;;12.50;99.90;;;;;;4955270;28;20607;-68
2022/04/13 00:24:25;;;;;;;9.38;7.70;;;12.60;99.90;;;;;;4962709;28;20096;-68
2022/04/13 00:26:51;;;;;;;9.55;6.85;;;12.50;99.90;;;;;;4953717;28;20062;-68
2022/04/13 00:29:17;;;;;;;8.07;5.30;;;12.60;99.90;;;;;;4957704;28;20050;-68
2022/04/13 00:31:42;;;;;;;9.25;7.38;;;12.60;99.90;;;;;;4958128;28;20050;-68
2022/04/13 00:34:08;;;;;;;11.07;6.60;;;12.60;99.90;;;;;;4961136;28;20400;-68
2022/04/13 00:36:34;;;;;;;7.25;5.95;;;12.50;99.90;;;;;;4962067;28;20163;-68
2022/04/13 00:38:59;;;;;;;7.10;5.93;;;12.50;99.90;;;;;;4958401;28;20100;-69
2022/04/13 00:41:25;;;;;;;11.60;7.00;;;12.50;99.90;;;;;;4958443;28;20074;-68
2022/04/13 00:44:11;;;;;;;11.18;6.88;;;12.50;99.90;;;;;;4955647;28;20070;-68
2022/04/13 00:46:37;;;;;;;;;;;12.50;99.90;;;;;;4954917;28;20062;-68
2022/04/13 00:49:05;;;;;;;12.57;6.78;;;12.40;99.90;;;;;;4955740;28;20022;-68
2022/04/13 00:51:30;;;;;;;10.25;7.15;;;12.30;99.90;;;;;;4960489;28;20354;-68
2022/04/13 00:53:57;;;;;;;8.32;6.97;;;12.40;99.90;;;;;;4958610;28;20090;-68
2022/04/13 00:56:27;;;;;;;11.80;7.03;;;12.40;99.90;;;;;;4961079;28;20101;-68
2022/04/13 00:58:55;;;;;;;9.07;7.38;;;12.30;99.90;;;;;;4961941;28;20042;-68
2022/04/13 01:01:25;;;;;;;12.65;7.38;;;12.20;99.90;;;;;;4960638;28;20446;-68
2022/04/13 01:03:52;;;;;;;10.32;8.10;;;12.20;99.90;;;;;;4959741;28;20047;-68
2022/04/13 01:06:19;;;;;;;7.80;6.90;;;12.20;99.90;;;;;;4959313;28;20161;-68
2022/04/13 01:08:48;;;;;;;10.15;7.00;;;12.20;99.90;;;;;;4959736;28;20054;-68
2022/04/13 01:11:14;;;;;;;12.13;7.35;;;12.20;99.90;;;;;;4959211;28;20822;-68
2022/04/13 01:13:40;;;;;;;10.55;6.85;;;12.20;99.90;;;;;;4957560;28;20046;-68
2022/04/13 01:16:06;;;;;;;16.67;7.43;;;12.10;99.90;;;;;;4961992;28;20054;-68
2022/04/13 01:18:32;;;;;;;10.27;8.10;;;12.20;99.90;;;;;;4958459;28;20104;-68
2022/04/13 01:20:58;;;;;;;14.13;8.55;;;12.10;99.90;;;;;;4962381;28;20138;-68
2022/04/13 01:23:24;;;;;;;9.10;8.18;;;12.10;99.90;;;;;;4959372;28;20133;-68
2022/04/13 01:25:51;;;;;;;9.75;7.78;;;12.10;99.90;;;;;;4958047;28;20077;-68
2022/04/13 01:28:17;;;;;;;8.10;6.65;;;12.10;99.90;;;;;;4962828;28;20045;-68
2022/04/13 01:30:43;;;;;;;8.75;6.18;;;12.10;99.90;;;;;;4959230;28;20047;-68
2022/04/13 01:33:10;;;;;;;10.57;7.80;;;12.10;99.90;;;;;;4956659;28;20039;-68
2022/04/13 01:35:35;;;;;;;12.40;7.05;;;12.10;99.90;;;;;;4959569;28;20054;-68
2022/04/13 01:38:01;;;;;;;12.18;6.55;;;12.10;99.90;;;;;;4956591;28;20105;-68
2022/04/13 01:40:27;;;;;;;7.88;5.53;;;12.10;99.90;;;;;;4957135;28;20078;-68
2022/04/13 01:42:53;;;;;;;7.03;4.97;;;12.00;99.90;;;;;;4959269;28;20054;-68
2022/04/13 01:45:21;;;;;;;8.40;5.95;;;12.00;99.90;;;;;;4972106;28;20062;-68
2022/04/13 01:47:51;;;;;;;8.63;6.13;;;12.00;99.90;;;;;;4955631;28;20119;-68
2022/04/13 01:50:18;;;;;;;11.25;6.05;;;12.00;99.90;;;;;;4961292;28;20067;-68
2022/04/13 01:52:44;;;;;;;7.10;6.00;;;11.90;99.90;;;;;;4958977;28;20050;-68
2022/04/13 01:55:10;;;;;;;7.72;5.03;;;11.90;99.90;;;;;;4958550;28;20043;-68
2022/04/13 01:57:38;;;;;;;8.95;6.43;;;11.90;99.90;;;;;;4959742;28;20026;-68
2022/04/13 02:00:06;;;;;;;8.98;7.68;;;11.90;99.90;;;;;;4960191;28;20354;-68
2022/04/13 02:02:31;;;;;;;8.55;6.28;;;11.90;99.90;;;;;;4961035;28;20129;-68
2022/04/13 02:04:57;;;;;;;9.93;7.03;;;11.90;99.90;;;;;;4960615;28;20092;-68
2022/04/13 02:07:23;;;;;;;10.90;6.97;;;11.90;99.90;;;;;;4962413;28;20046;-68
2022/04/13 02:09:49;;;;;;;9.00;7.20;;;11.90;99.90;;;;;;4953492;28;20050;-68
2022/04/13 02:12:15;;;;;;;12.27;7.40;;;11.90;99.90;;;;;;4952604;28;20041;-68
2022/04/13 02:14:41;;;;;;;9.90;6.70;;;11.90;99.90;;;;;;4953770;28;20058;-68
2022/04/13 02:17:06;;;;;;;12.30;8.38;;;11.90;99.90;;;;;;4956956;28;20043;-68
2022/04/13 02:19:32;;;;;;;9.52;7.40;;;11.90;99.90;;;;;;4953555;28;20057;-68
2022/04/13 02:21:57;;;;;;;11.48;8.10;;;11.90;99.90;;;;;;4949791;28;20620;-68
2022/04/13 02:24:23;;;;;;;11.95;8.23;;;11.90;99.90;;;;;;4953875;28;20042;-68
2022/04/13 02:26:48;;;;;;;9.20;7.10;;;11.90;99.90;;;;;;4953694;28;20043;-68
2022/04/13 02:29:14;;;;;;;11.63;7.00;;;12.00;99.90;;;;;;4975249;28;20051;-68
2022/04/13 02:31:40;;;;;;;12.23;7.78;;;11.90;99.90;;;;;;4956939;28;20124;-67
2022/04/13 02:34:06;;;;;;;10.50;7.93;;;12.00;99.90;;;;;;4955939;28;20051;-68
2022/04/13 02:36:32;;;;;;;17.25;7.45;;;11.90;99.90;;;;;;4954077;28;20046;-68
2022/04/13 02:38:59;;;;;;;10.45;7.38;;;11.90;99.90;;;;;;4958172;28;20523;-68
2022/04/13 02:41:24;;;;;;;9.07;8.18;;;11.90;99.90;;;;;;4958606;28;20043;-68
2022/04/13 02:43:50;;;;;;;7.45;6.63;;;11.80;99.90;;;;;;4959888;28;20058;-68
2022/04/13 02:46:16;;;;;;;12.57;7.65;;;11.80;99.90;;;;;;4955687;28;20071;-68
2022/04/13 02:48:41;;;;;;;11.73;7.40;;;11.80;99.90;;;;;;4960385;28;20559;-68
2022/04/13 02:51:07;;;;;;;9.02;7.25;;;11.80;99.90;;;;;;4956662;28;20050;-68
2022/04/13 02:53:33;;;;;;;10.63;7.90;;;11.80;99.90;;;;;;4956427;28;20041;-68
2022/04/13 02:55:58;;;;;;;12.65;8.32;;;11.80;99.90;;;;;;4954949;28;20136;-68
2022/04/13 02:58:24;;;;;;;12.10;7.80;;;11.70;99.90;;;;;;4956911;28;20058;-68
2022/04/13 03:00:50;;;;;;;10.57;7.18;;;11.80;99.90;;;;;;4953682;28;20859;-68
2022/04/13 03:03:19;;;;;;;11.52;8.52;;;11.80;99.90;;;;;;4954581;28;20058;-68
2022/04/13 03:05:45;;;;;;;12.32;8.18;;;11.70;99.90;;;;;;4952532;28;20055;-68
2022/04/13 03:08:10;;;;;;;13.60;8.40;;;11.70;99.90;;;;;;4958015;28;20038;-68
2022/04/13 03:10:36;;;;;;;12.40;8.77;;;11.80;99.90;;;;;;4955128;28;20043;-68
2022/04/13 03:13:03;;;;;;;11.68;8.57;;;11.70;99.90;;;;;;4957574;28;20039;-68
2022/04/13 03:15:29;;;;;;;11.93;8.77;;;11.70;99.90;;;;;;4959991;28;20038;-68
2022/04/13 03:17:54;;;;;;;13.70;8.68;;;11.80;99.90;;;;;;4956204;28;20035;-68
2022/04/13 03:20:20;;;;;;;10.43;8.43;;;11.70;99.90;;;;;;4957585;28;21504;-68
2022/04/13 03:22:46;;;;;;;10.73;8.90;;;11.70;99.90;;;;;;4959226;28;20043;-68
2022/04/13 03:25:12;;;;;;;12.80;8.73;;;11.60;99.90;;;;;;4956629;28;20058;-68
2022/04/13 03:27:37;;;;;;;15.07;8.98;;;11.60;99.90;;;;;;4956398;28;20047;-68
2022/04/13 03:30:04;;;;;;;17.67;8.75;;;11.60;99.90;;;;;;4958320;28;20031;-68
2022/04/13 03:32:37;;;;;;;12.38;8.43;;;11.60;99.90;;;;;;4956819;28;20057;-68
2022/04/13 03:35:07;;;;;;;10.85;8.77;;;11.60;99.90;;;;;;4952802;28;20054;-68
2022/04/13 03:37:33;;;;;;;12.75;8.95;;;11.60;99.90;;;;;;4955164;28;20046;-68
2022/04/13 03:39:59;;;;;;;13.45;10.55;;;11.50;99.90;;;;;;4957574;28;20435;-68
2022/04/13 03:42:25;;;;;;;10.20;8.70;;;11.40;99.90;;;;;;4955095;28;20031;-68
2022/04/13 03:44:50;;;;;;;12.38;8.65;;;11.40;99.90;;;;;;4956989;28;20113;-68
2022/04/13 03:47:16;;;;;;;11.70;9.40;;;11.40;99.90;;;;;;4952357;28;20093;-68
2022/04/13 03:49:41;;;;;;;13.02;9.50;;;11.40;99.90;;;;;;4958107;28;20118;-68
2022/04/13 03:52:07;;;;;;;10.68;8.23;;;11.40;99.90;;;;;;4968687;28;20404;-68
2022/04/13 03:54:33;;;;;;;14.75;8.45;;;11.40;99.90;;;;;;4955260;28;20035;-68
2022/04/13 03:56:59;;;;;;;11.82;8.00;;;11.40;99.90;;;;;;4957457;28;20042;-68
2022/04/13 03:59:26;;;;;;;11.30;10.15;;;11.40;99.90;;;;;;4960645;28;20047;-68
2022/04/13 04:01:52;;;;;;;12.95;9.23;;;11.40;99.90;;;;;;4961759;28;20554;-68
2022/04/13 04:04:18;;;;;;;10.30;9.20;;;11.30;99.90;;;;;;4960538;28;20047;-68
2022/04/13 04:06:43;;;;;;;14.32;9.85;;;11.30;99.90;;;;;;4960627;28;20521;-68
2022/04/13 04:09:09;;;;;;;14.65;8.63;;;11.30;99.90;;;;;;4961011;28;20480;-68
2022/04/13 04:11:35;;;;;;;13.68;11.05;;;11.20;99.90;;;;;;4961520;28;20046;-68
2022/04/13 04:14:01;;;;;;;14.90;8.35;;;11.30;99.90;;;;;;4957064;28;20038;-68
2022/04/13 04:16:27;;;;;;;11.63;9.23;;;11.30;99.90;;;;;;4960368;28;20054;-68
2022/04/13 04:18:53;;;;;;;17.63;11.63;;;11.20;99.90;;;;;;4962794;28;20043;-68
2022/04/13 04:21:19;;;;;;;13.90;9.85;;;11.30;99.90;;;;;;4960877;28;20051;-68
2022/04/13 04:23:45;;;;;;;20.20;11.75;;;11.20;99.90;;;;;;4947091;28;20055;-68
2022/04/13 04:26:11;;;;;;;18.80;11.48;;;11.30;99.90;;;;;;4961722;28;20035;-67
2022/04/13 04:28:37;;;;;;;14.57;10.43;;;11.30;99.90;;;;;;4959847;28;20039;-68
2022/04/13 04:31:02;;;;;;;15.23;9.45;;;11.30;99.90;;;;;;4956409;28;20043;-68
2022/04/13 04:33:28;;;;;;;17.58;11.85;;;11.30;99.90;;;;;;4959505;28;20045;-68
2022/04/13 04:35:53;;;;;;;19.95;11.30;;;11.30;99.90;;;;;;4975711;28;20051;-68
2022/04/13 04:38:19;;;;;;;20.33;12.60;;;11.20;99.90;;;;;;4960939;28;20035;-68
2022/04/13 04:40:45;;;;;;;24.80;12.38;;;11.30;99.90;;;;;;4960305;28;20691;-68
2022/04/13 04:43:11;;;;;;;20.15;12.27;;;11.20;99.90;;;;;;4959021;28;20054;-68
2022/04/13 04:45:37;;;;;;;19.45;11.32;;;11.30;99.90;;;;;;4960855;28;20704;-68
2022/04/13 04:48:06;;;;;;;26.20;13.73;;;11.20;99.90;;;;;;4976467;28;20077;-68
2022/04/13 04:50:34;;;;;;;16.30;12.15;;;11.20;99.90;;;;;;4958404;28;20481;-68
2022/04/13 04:53:00;;;;;;;19.83;11.95;;;11.20;99.90;;;;;;4963359;28;20512;-68
2022/04/13 04:55:25;;;;;;;32.38;13.48;;;11.20;99.90;;;;;;4960834;28;20039;-67
2022/04/13 04:57:51;;;;;;;31.25;14.80;;;11.20;99.90;;;;;;4958490;28;20051;-68
2022/04/13 05:00:19;;;;;;;26.60;13.68;;;11.20;99.90;;;;;;4960278;28;20068;-68
2022/04/13 05:02:49;;;;;;;12.98;9.95;;;11.20;99.90;;;;;;4957990;28;20860;-68
2022/04/13 05:05:14;;;;;;;18.60;9.88;;;11.20;99.90;;;;;;4958958;28;20133;-68
2022/04/13 05:07:41;;;;;;;20.45;10.40;;;11.20;99.90;;;;;;4959835;28;20596;-69
2022/04/13 05:10:07;;;;;;;14.27;12.13;;;11.20;99.90;;;;;;4958547;28;20057;-68
2022/04/13 05:12:42;;;;;;;30.38;12.75;;;11.30;99.90;;;;;;4957677;28;20042;-68
2022/04/13 05:15:08;;;;;;;20.85;13.70;;;11.30;99.90;;;;;;4962809;28;20497;-68
2022/04/13 05:17:35;;;;;;;19.67;13.32;;;11.30;99.90;;;;;;4960564;28;20039;-68
2022/04/13 05:20:01;;;;;;;19.60;13.05;;;11.40;99.90;;;;;;4955461;28;20082;-68
2022/04/13 05:22:27;;;;;;;20.45;12.52;;;11.40;99.90;;;;;;4957128;28;20154;-68
2022/04/13 05:24:52;;;;;;;74.50;16.05;;;11.40;99.90;;;;;;4960455;28;20043;-68
2022/04/13 05:27:18;;;;;;;41.85;15.95;;;11.50;99.90;;;;;;4959562;28;20051;-68
2022/04/13 05:29:43;;;;;;;28.92;13.60;;;11.50;99.90;;;;;;4961652;28;20095;-69
2022/04/13 05:32:09;;;;;;;19.52;13.93;;;11.60;99.90;;;;;;4961663;28;20050;-68
2022/04/13 05:34:35;;;;;;;36.72;14.57;;;11.70;99.90;;;;;;4957398;28;20035;-68
2022/04/13 05:37:01;;;;;;;49.03;15.38;;;11.70;99.90;;;;;;4963464;28;20140;-68
2022/04/13 05:39:27;;;;;;;36.17;15.55;;;11.80;99.90;;;;;;4962204;28;20496;-68
2022/04/13 05:41:52;;;;;;;31.90;14.23;;;11.90;99.90;;;;;;4957965;28;20047;-68
2022/04/13 05:44:18;;;;;;;29.27;14.45;;;12.00;99.90;;;;;;4960206;28;20047;-68
2022/04/13 05:46:44;;;;;;;28.63;14.02;;;12.10;99.90;;;;;;4960974;28;20061;-68
2022/04/13 05:49:09;;;;;;;105.63;17.73;;;12.20;99.90;;;;;;4965025;28;20043;-68
2022/04/13 05:51:35;;;;;;;51.78;15.63;;;12.20;99.90;;;;;;4960118;28;20081;-68
2022/04/13 05:54:00;;;;;;;35.38;16.55;;;12.20;99.90;;;;;;4963769;28;20035;-68
2022/04/13 05:56:27;;;;;;;35.88;14.80;;;12.30;99.90;;;;;;4962790;28;20449;-68
2022/04/13 05:58:52;;;;;;;18.73;14.27;;;12.30;99.90;;;;;;4963032;28;20074;-68
2022/04/13 06:01:18;;;;;;;22.35;13.77;;;12.40;99.90;;;;;;4961996;28;20070;-68
2022/04/13 06:03:43;;;;;;;24.13;14.95;;;12.60;99.90;;;;;;4975960;28;20142;-68
2022/04/13 06:06:10;;;;;;;18.85;13.60;;;12.80;99.90;;;;;;4961805;28;20050;-68
2022/04/13 06:08:36;;;;;;;19.02;14.95;;;12.90;99.90;;;;;;4959701;28;20118;-68
2022/04/13 06:11:01;;;;;;;40.72;15.23;;;13.00;99.90;;;;;;4960057;28;20125;-68
2022/04/13 06:13:27;;;;;;;23.73;14.23;;;13.20;99.90;;;;;;4954193;28;20054;-68
2022/04/13 06:15:53;;;;;;;27.48;15.43;;;13.40;99.90;;;;;;4960794;28;20035;-68
2022/04/13 06:18:18;;;;;;;18.48;14.07;;;13.60;99.90;;;;;;4960220;28;20046;-68
2022/04/13 06:20:44;;;;;;;21.08;14.73;;;13.70;99.90;;;;;;4954620;28;21525;-68
2022/04/13 06:23:10;;;;;;;30.90;15.73;;;13.90;99.90;;;;;;4956620;28;20092;-68
2022/04/13 06:25:35;;;;;;;26.20;14.85;;;13.90;99.90;;;;;;4954211;28;20564;-68
2022/04/13 06:28:01;;;;;;;26.08;15.20;;;14.00;99.90;;;;;;4958611;28;20422;-68
2022/04/13 06:30:27;;;;;;;23.98;15.10;;;14.10;99.90;;;;;;4958005;28;20453;-68
2022/04/13 06:32:52;;;;;;;21.30;14.63;;;14.10;99.90;;;;;;4954432;28;20666;-69
2022/04/13 06:35:18;;;;;;;26.63;14.95;;;14.20;99.90;;;;;;4959560;28;20045;-68
2022/04/13 06:37:47;;;;;;;24.08;13.50;;;14.20;99.90;;;;;;4973266;28;20051;-70
2022/04/13 06:40:14;;;;;;;27.13;13.50;;;14.20;99.90;;;;;;4958166;28;20470;-72
2022/04/13 06:42:40;;;;;;;21.73;14.30;;;14.10;99.90;;;;;;4956314;28;20035;-71
2022/04/13 06:45:08;;;;;;;26.45;15.02;;;14.10;99.90;;;;;;4958323;28;20046;-71
2022/04/13 06:47:34;;;;;;;21.17;14.85;;;14.10;99.90;;;;;;4958491;28;20047;-71
2022/04/13 06:49:59;;;;;;;20.65;14.55;;;14.10;99.90;;;;;;4959449;28;20047;-71
2022/04/13 06:52:26;;;;;;;34.05;15.25;;;14.10;99.90;;;;;;4963802;28;20042;-71
2022/04/13 06:54:52;;;;;;;23.92;13.57;;;14.20;99.90;;;;;;4959070;28;20070;-71
2022/04/13 06:57:17;;;;;;;18.92;13.90;;;14.30;99.90;;;;;;4953273;28;20078;-71
2022/04/13 06:59:43;;;;;;;21.85;13.35;;;14.40;99.90;;;;;;4954977;28;20043;-71
2022/04/13 07:02:12;;;;;;;23.60;13.75;;;14.60;99.90;;;;;;4960019;28;20042;-71
2022/04/13 07:04:38;;;;;;;19.20;12.50;;;14.90;99.90;;;;;;4957841;28;20049;-71
2022/04/13 07:07:04;;;;;;;20.52;12.75;;;15.30;99.90;;;;;;4956728;28;20416;-71
2022/04/13 07:09:30;;;;;;;20.30;12.07;;;15.50;99.90;;;;;;4955949;28;20101;-71
2022/04/13 07:11:55;;;;;;;19.20;10.57;;;15.80;99.90;;;;;;4956457;28;20042;-71
2022/04/13 07:14:21;;;;;;;22.75;11.80;;;16.00;99.90;;;;;;4954676;28;20121;-71
2022/04/13 07:16:46;;;;;;;18.98;11.43;;;16.30;99.90;;;;;;4954535;28;20086;-72
2022/04/13 07:19:12;;;;;;;24.50;11.68;;;16.50;99.90;;;;;;4971827;28;20054;-71
2022/04/13 07:21:38;;;;;;;17.27;10.75;;;16.70;99.90;;;;;;4957257;28;20051;-72
2022/04/13 07:24:04;;;;;;;20.13;10.65;;;16.70;99.90;;;;;;4956251;28;20071;-72
2022/04/13 07:26:30;;;;;;;19.95;10.52;;;16.80;99.90;;;;;;4956431;28;20049;-72
2022/04/13 07:28:56;;;;;;;17.17;9.82;;;16.70;99.90;;;;;;4951391;28;20043;-72
2022/04/13 07:31:21;;;;;;;14.88;9.60;;;16.80;99.90;;;;;;4959198;28;20039;-72
2022/04/13 07:33:47;;;;;;;14.82;9.55;;;16.60;99.90;;;;;;4958752;28;20058;-72
2022/04/13 07:36:13;;;;;;;15.38;9.52;;;16.60;99.90;;;;;;4956577;28;20173;-71
2022/04/13 07:38:38;;;;;;;14.15;8.30;;;16.70;99.90;;;;;;4951967;28;20058;-71
2022/04/13 07:41:04;;;;;;;13.57;8.55;;;16.70;99.90;;;;;;4953930;28;20050;-71
2022/04/13 07:43:30;;;;;;;15.13;7.75;;;16.70;99.90;;;;;;4956659;28;20034;-71
2022/04/13 07:45:56;;;;;;;14.73;8.63;;;16.70;99.90;;;;;;4957286;28;20074;-71
2022/04/13 07:48:22;;;;;;;13.88;7.65;;;16.70;99.90;;;;;;4958752;28;20158;-71
2022/04/13 07:50:47;;;;;;;16.73;9.13;;;16.70;99.90;;;;;;4964077;28;20047;-72
2022/04/13 07:53:17;;;;;;;12.85;8.48;;;16.70;99.90;;;;;;4957200;28;20043;-72
2022/04/13 07:55:42;;;;;;;12.40;7.80;;;16.60;99.90;;;;;;4954532;28;20071;-72
2022/04/13 07:58:08;;;;;;;14.52;8.10;;;16.50;99.90;;;;;;4961599;28;20109;-71
2022/04/13 08:00:34;;;;;;;10.65;7.53;;;16.50;99.90;;;;;;4957752;28;20468;-72
2022/04/13 08:03:00;;;;;;;11.95;7.50;;;16.40;99.90;;;;;;4972076;28;20050;-72
2022/04/13 08:05:25;;;;;;;14.43;8.63;;;16.40;99.90;;;;;;4953193;28;20048;-72
2022/04/13 08:07:51;;;;;;;13.20;7.15;;;16.40;99.90;;;;;;4955581;28;20130;-72
2022/04/13 08:10:17;;;;;;;13.85;7.22;;;16.50;99.90;;;;;;4953438;28;20054;-72
2022/04/13 08:12:46;;;;;;;17.58;7.80;;;16.50;99.90;;;;;;4955117;28;20491;-72
2022/04/13 08:15:13;;;;;;;17.15;8.13;;;16.50;99.90;;;;;;4961448;28;20050;-71
2022/04/13 08:17:40;;;;;;;17.38;7.53;;;16.50;99.90;;;;;;4973980;28;20054;-71
2022/04/13 08:20:08;;;;;;;14.52;8.40;;;16.50;99.90;;;;;;4953036;28;20064;-71
2022/04/13 08:22:34;;;;;;;17.15;7.70;;;16.60;99.90;;;;;;4950216;28;20049;-71
2022/04/13 08:24:59;;;;;;;12.45;6.97;;;16.70;99.90;;;;;;4952797;28;20034;-71
2022/04/13 08:27:25;;;;;;;13.70;6.78;;;16.80;99.90;;;;;;4953453;28;20113;-71
2022/04/13 08:29:51;;;;;;;15.02;7.25;;;16.80;99.90;;;;;;4956539;28;20039;-72
2022/04/13 08:32:18;;;;;;;12.45;7.50;;;17.00;99.90;;;;;;4957022;28;20106;-72
2022/04/13 08:34:45;;;;;;;18.88;7.80;;;17.10;99.90;;;;;;4968751;28;20074;-71
2022/04/13 08:37:11;;;;;;;11.18;6.22;;;17.30;99.90;;;;;;4958880;28;20497;-71
2022/04/13 08:39:39;;;;;;;13.63;7.57;;;17.40;99.90;;;;;;4950585;28;20153;-72
2022/04/13 08:42:12;;;;;;;15.38;7.50;;;17.60;99.90;;;;;;4967232;28;20047;-72
2022/04/13 08:44:50;;;;;;;11.18;7.47;;;17.50;99.90;;;;;;4956599;28;20042;-72
2022/04/13 08:47:20;;;;;;;44.38;9.25;;;17.70;99.90;;;;;;4959380;28;20042;-71
2022/04/13 08:49:51;;;;;;;23.48;8.10;;;17.90;99.90;;;;;;4955025;28;20049;-71
2022/04/13 08:52:28;;;;;;;15.27;7.35;;;18.00;99.90;;;;;;4962089;28;20043;-71
2022/04/13 08:55:09;;;;;;;15.00;8.02;;;18.20;99.90;;;;;;4961539;28;20433;-72
2022/04/13 08:57:46;;;;;;;16.10;7.47;;;18.10;99.90;;;;;;4973956;28;20058;-71
2022/04/13 09:00:16;;;;;;;19.45;8.57;;;17.90;99.90;;;;;;4959030;28;20055;-72
2022/04/13 09:02:50;;;;;;;14.02;7.22;;;17.90;99.90;;;;;;4959180;28;20081;-72
2022/04/13 09:05:31;;;;;;;14.30;7.93;;;18.00;99.90;;;;;;4956509;28;20086;-71
2022/04/13 09:08:16;;;;;;;13.77;7.68;;;18.10;99.90;;;;;;4962396;28;20047;-72
2022/04/13 09:10:43;;;;;;;12.85;6.97;;;18.20;99.90;;;;;;4956898;28;20051;-72
2022/04/13 09:13:10;;;;;;;45.33;9.40;;;18.40;99.90;;;;;;4974785;28;20477;-71
2022/04/13 09:15:38;;;;;;;11.00;6.38;;;18.50;99.90;;;;;;4955434;28;20049;-72
2022/04/13 09:18:06;;;;;;;11.15;7.72;;;18.70;99.90;;;;;;4961731;28;20094;-72
2022/04/13 09:20:32;;;;;;;12.40;7.18;;;18.90;99.90;;;;;;4957310;28;20061;-71
2022/04/13 09:23:00;;;;;;;10.10;6.57;;;19.10;99.90;;;;;;4959096;28;20039;-72
2022/04/13 09:25:29;;;;;;;11.52;6.30;;;19.30;99.90;;;;;;4975964;28;20504;-72
2022/04/13 09:27:56;;;;;;;11.30;5.75;;;19.30;99.90;;;;;;4960897;28;20131;-72
2022/04/13 09:30:22;;;;;;;9.38;5.18;;;19.30;99.90;;;;;;4958534;28;20082;-72
2022/04/13 09:32:50;;;;;;;10.48;5.28;;;19.40;99.90;;;;;;4959281;28;20622;-72
2022/04/13 09:35:19;;;;;;;12.27;5.40;;;19.50;99.90;;;;;;4958161;28;20035;-72
2022/04/13 09:37:45;;;;;;;9.45;3.78;;;19.60;99.90;;;;;;4958857;28;20954;-72
2022/04/13 09:40:31;;;;;;;8.52;3.17;;;19.60;99.90;;;;;;4957768;28;20046;-71
2022/04/13 09:43:09;;;;;;;7.93;3.97;;;19.60;99.90;;;;;;4957294;28;20070;-71
2022/04/13 09:45:42;;;;;;;6.88;3.95;;;19.70;99.80;;;;;;4959011;28;20027;-71
2022/04/13 09:48:10;;;;;;;8.48;3.65;;;19.70;99.60;;;;;;4956621;28;20102;-71
2022/04/13 09:50:37;;;;;;;6.45;3.78;;;19.80;98.40;;;;;;4942017;28;20700;-71
2022/04/13 09:53:05;;;;;;;8.55;3.70;;;19.70;97.60;;;;;;4960803;28;20043;-71
2022/04/13 09:55:42;;;;;;;20.90;4.13;;;19.60;97.70;;;;;;4961601;28;20047;-71
2022/04/13 09:58:16;;;;;;;8.15;3.42;;;19.60;96.70;;;;;;4961086;28;20057;-71
2022/04/13 10:00:44;;;;;;;18.95;5.05;;;19.60;97.30;;;;;;4959182;28;20051;-72
2022/04/13 10:03:17;;;;;;;11.23;4.25;;;19.60;97.90;;;;;;4975934;28;20437;-71
2022/04/13 10:05:51;;;;;;;8.43;4.13;;;19.80;98.30;;;;;;4957974;28;20058;-71
2022/04/13 10:08:23;;;;;;;11.82;4.35;;;20.00;97.70;;;;;;4958772;28;20238;-72
2022/04/13 10:10:50;;;;;;;9.27;4.85;;;20.20;97.70;;;;;;4953912;28;20051;-71
2022/04/13 10:13:36;;;;;;;10.73;5.15;;;20.40;97.40;;;;;;4956552;28;20039;-71
2022/04/13 10:16:07;;;;;;;9.43;4.50;;;20.60;98.70;;;;;;4952905;28;20204;-72
2022/04/13 10:18:59;;;;;;;6.65;3.63;;;20.70;95.70;;;;;;4954295;28;20046;-71
2022/04/13 10:21:40;;;;;;;7.15;3.20;;;20.70;93.80;;;;;;4958388;28;20532;-72
2022/04/13 10:24:08;;;;;;;7.07;4.78;;;20.80;95.30;;;;;;4976864;28;20035;-72
2022/04/13 10:26:34;;;;;;;5.20;2.15;;;20.80;95.60;;;;;;4954108;28;20093;-72
2022/04/13 10:28:59;;;;;;;9.50;3.72;;;20.80;93.90;;;;;;4956935;28;20605;-72
2022/04/13 10:31:25;;;;;;;6.38;3.47;;;20.90;93.40;;;;;;4959358;28;20051;-72
2022/04/13 10:33:55;;;;;;;3.70;1.70;;;21.00;93.70;;;;;;4956711;28;20484;-72
2022/04/13 10:36:21;;;;;;;6.45;3.83;;;21.20;93.80;;;;;;4961226;28;20061;-71
2022/04/13 10:38:47;;;;;;;8.63;4.65;;;21.40;93.90;;;;;;4956843;28;20054;-72
2022/04/13 10:41:18;;;;;;;8.13;4.50;;;21.60;94.00;;;;;;4955443;28;20053;-72
2022/04/13 10:43:52;;;;;;;7.88;3.60;;;21.60;93.10;;;;;;4951881;28;20051;-72
2022/04/13 10:46:20;;;;;;;7.82;4.82;;;21.50;92.10;;;;;;4953925;28;20070;-72
2022/04/13 10:48:55;;;;;;;7.22;3.38;;;21.50;93.50;;;;;;4952572;28;20129;-72
2022/04/13 10:51:26;;;;;;;13.35;3.97;;;21.60;92.90;;;;;;4950767;28;20043;-72
2022/04/13 10:54:03;;;;;;;5.82;2.20;;;21.70;92.90;;;;;;4950270;28;20039;-72
2022/04/13 10:56:32;;;;;;;8.63;3.40;;;21.70;92.50;;;;;;4954706;28;20373;-72
2022/04/13 10:59:18;;;;;;;7.25;2.97;;;21.70;91.10;;;;;;4958966;28;20505;-72
2022/04/13 11:01:53;;;;;;;10.05;3.85;;;21.60;91.50;;;;;;4957630;28;20078;-72
2022/04/13 11:04:22;;;;;;;11.40;3.30;;;21.30;89.80;;;;;;4955215;28;20074;-72
2022/04/13 11:06:48;;;;;;;9.90;2.58;;;21.00;89.00;;;;;;4952374;28;21535;-72
2022/04/13 11:09:25;;;;;;;18.55;3.75;;;21.00;90.70;;;;;;4949368;28;20113;-71
2022/04/13 11:11:55;;;;;;;15.30;3.40;;;20.80;90.10;;;;;;4953433;28;20047;-72
2022/04/13 11:14:25;;;;;;;6.60;2.75;;;20.60;90.70;;;;;;4954942;28;20043;-72
2022/04/13 11:17:05;;;;;;;5.47;2.10;;;20.50;91.90;;;;;;4954246;28;20058;-72
2022/04/13 11:19:31;;;;;;;10.68;1.38;;;20.70;92.60;;;;;;4952565;28;20066;-72
2022/04/13 11:21:57;;;;;;;32.03;3.75;;;21.10;91.40;;;;;;4954760;28;20728;-72
2022/04/13 11:24:35;;;;;;;5.80;1.30;;;21.20;90.30;;;;;;4971623;28;20456;-72
2022/04/13 11:27:02;;;;;;;11.27;2.88;;;21.40;90.20;;;;;;4971489;28;20835;-72
2022/04/13 11:29:38;;;;;;;7.28;2.50;;;21.30;87.10;;;;;;4954468;28;20101;-72
2022/04/13 11:32:06;;;;;;;34.08;4.45;;;21.10;86.50;;;;;;4951463;28;20126;-72
2022/04/13 11:34:56;;;;;;;11.73;2.97;;;20.80;86.80;;;;;;4950959;28;20058;-71
2022/04/13 11:37:40;;;;;;;19.05;3.95;;;20.50;87.20;;;;;;4955676;28;20049;-72
2022/04/13 11:40:10;;;;;;;19.15;4.50;;;20.30;90.00;;;;;;4953914;28;20130;-72
2022/04/13 11:42:39;;;;;;;12.93;4.15;;;19.90;90.60;;;;;;4954341;28;20058;-72
2022/04/13 11:45:06;;;;;;;29.85;4.53;;;19.80;92.30;;;;;;4955360;28;20046;-72
2022/04/13 11:47:47;;;;;;;12.90;4.47;;;19.50;92.50;;;;;;4953772;28;20382;-72
2022/04/13 11:50:13;;;;;;;15.32;4.40;;;19.50;93.50;;;;;;4957734;28;20047;-72
2022/04/13 11:52:49;;;;;;;68.82;8.20;;;19.40;94.60;;;;;;4951406;28;20440;-72
2022/04/13 11:55:20;;;;;;;14.88;4.95;;;19.20;94.60;;;;;;4952557;28;20166;-72
2022/04/13 11:57:57;;;;;;;34.22;7.15;;;19.20;95.50;;;;;;4953912;28;20065;-72
2022/04/13 12:00:35;;;;;;;14.57;5.43;;;19.20;95.60;;;;;;4955545;28;20484;-72
2022/04/13 12:03:03;;;;;;;11.35;5.32;;;19.30;96.50;;;;;;4956733;28;20105;-72
2022/04/13 12:05:28;;;;;;;11.80;4.30;;;19.30;96.80;;;;;;4955965;28;20122;-72
2022/04/13 12:07:54;;;;;;;14.68;5.07;;;19.40;96.90;;;;;;4955972;28;20027;-72
2022/04/13 12:10:24;;;;;;;14.10;3.72;;;19.50;96.90;;;;;;4959521;28;20035;-72
2022/04/13 12:12:55;;;;;;;9.25;2.70;;;19.50;96.60;;;;;;4957633;28;20058;-72
2022/04/13 12:15:21;;;;;;;8.60;2.97;;;19.60;96.70;;;;;;4923969;28;20043;-72
2022/04/13 12:17:47;;;;;;;7.85;1.52;;;19.60;96.30;;;;;;4954574;28;20085;-71
2022/04/13 12:20:31;;;;;;;10.52;1.10;;;19.60;95.20;;;;;;4957598;28;20556;-72
2022/04/13 12:22:57;;;;;;;5.55;1.58;;;19.70;94.30;;;;;;4959349;28;20096;-72
2022/04/13 12:25:22;;;;;;;6.35;1.60;;;19.50;94.50;;;;;;4963062;28;20106;-72
2022/04/13 12:28:05;;;;;;;5.85;1.10;;;19.50;94.40;;;;;;4946604;28;20064;-72
2022/04/13 12:30:30;;;;;;;6.65;0.90;;;19.40;94.30;;;;;;4957670;28;20501;-72
2022/04/13 12:32:56;;;;;;;7.95;1.75;;;19.40;93.90;;;;;;4960478;28;20042;-72
2022/04/13 12:35:22;;;;;;;6.80;1.33;;;19.10;93.20;;;;;;4960603;28;20031;-72
2022/04/13 12:37:55;;;;;;;7.25;1.23;;;19.00;93.90;;;;;;4963501;28;20047;-72
2022/04/13 12:40:26;;;;;;;9.82;2.65;;;18.80;94.30;;;;;;4960886;28;20477;-71